Anapolis, Brazil

3:20 PM BRT on October 01, 2014 (GMT -0300)
Anapolis Air Base | Change Station
CLOSE
Current Station
Airport
Location: Anapolis,
Elevation: 3730 ft
Nearby Weather Stations

Elev 3730 ft 16.23 °S, 48.96 °W | Updated 20 minutes ago

Thunderstorm
Thunderstorm
70 °F
Feels Like 70 °F
N
9
Wind Variable Wind from WSW

Today
High -- | Low -- °F
--% Chance of Precip.
Yesterday
High -- | Low -- °F
Precip. -- in
5:58 AM 6:12 PM
Waxing Crescent, 50% visible
Pressure 30.06 in
Visibility 6.2 miles
Clouds Scattered Clouds 3000 ft
Few 4000 ft
Mostly Cloudy 10000 ft
Dew Point 63 °F
Humidity 78%
Rainfall 0.00 in
Snow Depth Not available.
UV 4 out of 12
Pollen Not available.
Air Quality Not available.
Flu Activity Not available.
METAR SBAN 301800Z 24008KT 9999 TS VCSH SCT030 FEW040CB BKN100 21/17 Q1018

More Conditions Fewer Conditions

Pressure 30.06 in
Visibility 6.2 miles
Clouds Scattered Clouds 3000 ft
Few 4000 ft
Mostly Cloudy 10000 ft
Dew Point 63 °F
Humidity 78%
Rainfall 0.00 in
Snow Depth Not available.
UV 4 out of 12
Pollen Not available.
Air Quality Not available.
Flu Activity Not available.
METAR SBAN 301800Z 24008KT 9999 TS VCSH SCT030 FEW040CB BKN100 21/17 Q1018

More Conditions Fewer Conditions

10-Day Weather Forecast

Almanac

Astronomy

Oct. 01, 2014 Rise Set
Actual Time 5:58 AM BRT 6:12 PM BRT
Civil Twilight 5:36 AM BRT 6:34 PM BRT
Nautical Twilight 5:11 AM BRT 6:59 PM BRT
Astronomical Twilight 4:46 AM BRT 7:24 PM BRT
Moon 11:37 AM BRT No Moon Set
Length of Visible Light 12h 57m
Length of Day
12h 14m
Tomorrow will be 0m 55s longer.
Waxing Crescent, 50% of the Moon is Illuminated
Today
Waxing Crescent
Oct 1
First Quarter
Oct 8
Full
Oct 15
Last Quarter
Oct 23
New

Today's Extremes

Country Highs Country Lows

Community

WunderPhotos

Upload Photos

1,758,008 photos uploaded!

WunderBlogs® & News

By Dr. Jeff Masters
Director of Meteorology, Weather Underground
By Kari Strenfel
Meteorologist, Weather Underground
By Christopher C. Burt
Weather Historian, Weather Underground
October 1, 2014
October 1, 2014
October 1, 2014

Nearby

Snow Depth

Not available.

Earthquake Activity

City Distance Mag. Time & Date
No recent earthquake activity has been reported nearby.
Minimum magnitude displayed is 2.5.

Coastal Water Temperatures

Place Temperature
No Stations Reporting

Nearby Weather Stations